sensor_id;sensor_type;location;lat;lon;timestamp;P1;durP1;ratioP1;P2;durP2;ratioP2
36689;SDS011;22676;51.120;3.702;2024-01-30T00:02:15;1.63;;;1.52;;
36689;SDS011;22676;51.120;3.702;2024-01-30T00:04:41;2.38;;;1.70;;
36689;SDS011;22676;51.120;3.702;2024-01-30T00:07:07;2.75;;;1.67;;
36689;SDS011;22676;51.120;3.702;2024-01-30T00:09:33;2.03;;;1.80;;
36689;SDS011;22676;51.120;3.702;2024-01-30T00:11:59;1.90;;;1.52;;
36689;SDS011;22676;51.120;3.702;2024-01-30T00:14:24;2.10;;;1.70;;
36689;SDS011;22676;51.120;3.702;2024-01-30T00:16:50;2.75;;;1.90;;
36689;SDS011;22676;51.120;3.702;2024-01-30T00:19:17;2.17;;;1.92;;
36689;SDS011;22676;51.120;3.702;2024-01-30T00:21:43;1.83;;;1.73;;
36689;SDS011;22676;51.120;3.702;2024-01-30T00:24:08;1.70;;;1.60;;
36689;SDS011;22676;51.120;3.702;2024-01-30T00:26:34;1.63;;;1.50;;
36689;SDS011;22676;51.120;3.702;2024-01-30T00:29:00;1.60;;;1.50;;
36689;SDS011;22676;51.120;3.702;2024-01-30T00:31:26;2.75;;;1.90;;
36689;SDS011;22676;51.120;3.702;2024-01-30T00:33:51;1.65;;;1.55;;
36689;SDS011;22676;51.120;3.702;2024-01-30T00:36:17;1.70;;;1.60;;
36689;SDS011;22676;51.120;3.702;2024-01-30T00:38:43;1.77;;;1.60;;
36689;SDS011;22676;51.120;3.702;2024-01-30T00:41:09;1.70;;;1.60;;
36689;SDS011;22676;51.120;3.702;2024-01-30T00:43:35;1.77;;;1.67;;
36689;SDS011;22676;51.120;3.702;2024-01-30T00:46:01;1.85;;;1.58;;
36689;SDS011;22676;51.120;3.702;2024-01-30T00:48:27;1.70;;;1.60;;
36689;SDS011;22676;51.120;3.702;2024-01-30T00:50:52;2.30;;;1.70;;
36689;SDS011;22676;51.120;3.702;2024-01-30T00:53:18;1.73;;;1.63;;
36689;SDS011;22676;51.120;3.702;2024-01-30T00:55:43;1.75;;;1.60;;
36689;SDS011;22676;51.120;3.702;2024-01-30T00:58:09;3.47;;;1.60;;
36689;SDS011;22676;51.120;3.702;2024-01-30T01:00:35;1.42;;;1.33;;
36689;SDS011;22676;51.120;3.702;2024-01-30T01:03:01;1.73;;;1.45;;
36689;SDS011;22676;51.120;3.702;2024-01-30T01:05:26;3.00;;;1.40;;
36689;SDS011;22676;51.120;3.702;2024-01-30T01:07:52;1.40;;;1.30;;
36689;SDS011;22676;51.120;3.702;2024-01-30T01:10:18;1.85;;;1.65;;
36689;SDS011;22676;51.120;3.702;2024-01-30T01:12:44;1.33;;;1.23;;
36689;SDS011;22676;51.120;3.702;2024-01-30T01:15:10;2.28;;;1.80;;
36689;SDS011;22676;51.120;3.702;2024-01-30T01:17:37;2.30;;;1.80;;
36689;SDS011;22676;51.120;3.702;2024-01-30T01:20:03;1.88;;;1.65;;
36689;SDS011;22676;51.120;3.702;2024-01-30T01:22:33;2.15;;;1.90;;
36689;SDS011;22676;51.120;3.702;2024-01-30T01:24:59;1.90;;;1.70;;
36689;SDS011;22676;51.120;3.702;2024-01-30T01:27:25;1.80;;;1.67;;
36689;SDS011;22676;51.120;3.702;2024-01-30T01:29:52;2.55;;;1.90;;
36689;SDS011;22676;51.120;3.702;2024-01-30T01:32:18;2.03;;;1.83;;
36689;SDS011;22676;51.120;3.702;2024-01-30T01:34:43;2.83;;;1.58;;
36689;SDS011;22676;51.120;3.702;2024-01-30T01:37:09;1.80;;;1.70;;
36689;SDS011;22676;51.120;3.702;2024-01-30T01:39:35;3.15;;;1.40;;
36689;SDS011;22676;51.120;3.702;2024-01-30T01:42:01;1.85;;;1.67;;
36689;SDS011;22676;51.120;3.702;2024-01-30T01:44:27;2.15;;;1.38;;
36689;SDS011;22676;51.120;3.702;2024-01-30T01:46:52;3.47;;;1.73;;
36689;SDS011;22676;51.120;3.702;2024-01-30T01:49:19;1.60;;;1.50;;
36689;SDS011;22676;51.120;3.702;2024-01-30T01:51:46;2.28;;;1.50;;
36689;SDS011;22676;51.120;3.702;2024-01-30T01:54:13;1.70;;;1.60;;
36689;SDS011;22676;51.120;3.702;2024-01-30T01:56:40;1.85;;;1.58;;
36689;SDS011;22676;51.120;3.702;2024-01-30T01:59:08;1.73;;;1.42;;
36689;SDS011;22676;51.120;3.702;2024-01-30T02:01:37;1.75;;;1.65;;
36689;SDS011;22676;51.120;3.702;2024-01-30T02:04:03;1.60;;;1.50;;
36689;SDS011;22676;51.120;3.702;2024-01-30T02:06:30;2.10;;;1.50;;
36689;SDS011;22676;51.120;3.702;2024-01-30T02:08:57;2.38;;;1.67;;
36689;SDS011;22676;51.120;3.702;2024-01-30T02:11:22;1.83;;;1.73;;
36689;SDS011;22676;51.120;3.702;2024-01-30T02:13:48;1.58;;;1.48;;
36689;SDS011;22676;51.120;3.702;2024-01-30T02:16:15;1.90;;;1.70;;
36689;SDS011;22676;51.120;3.702;2024-01-30T02:18:42;2.10;;;2.00;;
36689;SDS011;22676;51.120;3.702;2024-01-30T02:21:10;2.40;;;2.20;;
36689;SDS011;22676;51.120;3.702;2024-01-30T02:23:36;1.73;;;1.63;;
36689;SDS011;22676;51.120;3.702;2024-01-30T02:26:03;1.90;;;1.67;;
36689;SDS011;22676;51.120;3.702;2024-01-30T02:28:28;1.70;;;1.60;;
36689;SDS011;22676;51.120;3.702;2024-01-30T02:30:54;2.38;;;1.63;;
36689;SDS011;22676;51.120;3.702;2024-01-30T02:33:19;2.50;;;1.88;;
36689;SDS011;22676;51.120;3.702;2024-01-30T02:35:47;1.88;;;1.73;;
36689;SDS011;22676;51.120;3.702;2024-01-30T02:38:13;1.85;;;1.52;;
36689;SDS011;22676;51.120;3.702;2024-01-30T02:40:38;1.60;;;1.50;;
36689;SDS011;22676;51.120;3.702;2024-01-30T02:43:04;2.72;;;2.00;;
36689;SDS011;22676;51.120;3.702;2024-01-30T02:45:30;1.83;;;1.73;;
36689;SDS011;22676;51.120;3.702;2024-01-30T02:47:55;1.70;;;1.50;;
36689;SDS011;22676;51.120;3.702;2024-01-30T02:50:21;3.22;;;1.80;;
36689;SDS011;22676;51.120;3.702;2024-01-30T02:52:46;2.00;;;1.73;;
36689;SDS011;22676;51.120;3.702;2024-01-30T02:55:12;2.45;;;1.70;;
36689;SDS011;22676;51.120;3.702;2024-01-30T02:57:38;1.65;;;1.50;;
36689;SDS011;22676;51.120;3.702;2024-01-30T03:00:04;1.45;;;1.35;;
36689;SDS011;22676;51.120;3.702;2024-01-30T03:02:31;5.28;;;2.08;;
36689;SDS011;22676;51.120;3.702;2024-01-30T03:04:57;1.58;;;1.45;;
36689;SDS011;22676;51.120;3.702;2024-01-30T03:07:24;1.80;;;1.70;;
36689;SDS011;22676;51.120;3.702;2024-01-30T03:09:49;1.55;;;1.30;;
36689;SDS011;22676;51.120;3.702;2024-01-30T03:12:15;1.63;;;1.42;;
36689;SDS011;22676;51.120;3.702;2024-01-30T03:14:40;1.60;;;1.50;;
36689;SDS011;22676;51.120;3.702;2024-01-30T03:17:06;4.28;;;1.85;;
36689;SDS011;22676;51.120;3.702;2024-01-30T03:19:32;2.15;;;1.73;;
36689;SDS011;22676;51.120;3.702;2024-01-30T03:21:57;1.92;;;1.83;;
36689;SDS011;22676;51.120;3.702;2024-01-30T03:24:23;2.00;;;1.77;;
36689;SDS011;22676;51.120;3.702;2024-01-30T03:26:49;3.15;;;1.88;;
36689;SDS011;22676;51.120;3.702;2024-01-30T03:29:15;1.88;;;1.60;;
36689;SDS011;22676;51.120;3.702;2024-01-30T03:31:40;1.67;;;1.58;;
36689;SDS011;22676;51.120;3.702;2024-01-30T03:34:06;1.80;;;1.70;;
36689;SDS011;22676;51.120;3.702;2024-01-30T03:36:32;1.85;;;1.58;;
36689;SDS011;22676;51.120;3.702;2024-01-30T03:38:59;1.73;;;1.52;;
36689;SDS011;22676;51.120;3.702;2024-01-30T03:41:25;2.45;;;1.70;;
36689;SDS011;22676;51.120;3.702;2024-01-30T03:43:50;1.80;;;1.50;;
36689;SDS011;22676;51.120;3.702;2024-01-30T03:46:16;1.58;;;1.35;;
36689;SDS011;22676;51.120;3.702;2024-01-30T03:48:42;2.05;;;1.75;;
36689;SDS011;22676;51.120;3.702;2024-01-30T03:51:08;2.70;;;1.95;;
36689;SDS011;22676;51.120;3.702;2024-01-30T03:53:34;1.73;;;1.63;;
36689;SDS011;22676;51.120;3.702;2024-01-30T03:56:00;1.88;;;1.77;;
36689;SDS011;22676;51.120;3.702;2024-01-30T03:58:26;3.35;;;1.95;;
36689;SDS011;22676;51.120;3.702;2024-01-30T04:00:51;2.15;;;1.95;;
36689;SDS011;22676;51.120;3.702;2024-01-30T04:03:17;2.85;;;1.80;;
36689;SDS011;22676;51.120;3.702;2024-01-30T04:05:43;1.92;;;1.60;;
36689;SDS011;22676;51.120;3.702;2024-01-30T04:08:09;1.60;;;1.50;;
36689;SDS011;22676;51.120;3.702;2024-01-30T04:10:35;1.77;;;1.67;;
36689;SDS011;22676;51.120;3.702;2024-01-30T04:13:00;2.17;;;1.98;;
36689;SDS011;22676;51.120;3.702;2024-01-30T04:15:26;1.90;;;1.80;;
36689;SDS011;22676;51.120;3.702;2024-01-30T04:17:54;3.08;;;1.90;;
36689;SDS011;22676;51.120;3.702;2024-01-30T04:20:23;2.75;;;2.05;;
36689;SDS011;22676;51.120;3.702;2024-01-30T04:22:48;2.17;;;1.95;;
36689;SDS011;22676;51.120;3.702;2024-01-30T04:25:14;2.03;;;1.70;;
36689;SDS011;22676;51.120;3.702;2024-01-30T04:27:40;1.88;;;1.77;;
36689;SDS011;22676;51.120;3.702;2024-01-30T04:30:05;2.05;;;1.85;;
36689;SDS011;22676;51.120;3.702;2024-01-30T04:32:32;1.83;;;1.70;;
36689;SDS011;22676;51.120;3.702;2024-01-30T04:34:58;2.35;;;1.92;;
36689;SDS011;22676;51.120;3.702;2024-01-30T04:37:23;3.15;;;1.80;;
36689;SDS011;22676;51.120;3.702;2024-01-30T04:39:50;2.05;;;1.80;;
36689;SDS011;22676;51.120;3.702;2024-01-30T04:42:16;2.13;;;1.90;;
36689;SDS011;22676;51.120;3.702;2024-01-30T04:44:41;2.13;;;1.70;;
36689;SDS011;22676;51.120;3.702;2024-01-30T04:47:07;1.95;;;1.73;;
36689;SDS011;22676;51.120;3.702;2024-01-30T04:49:34;2.80;;;1.90;;
36689;SDS011;22676;51.120;3.702;2024-01-30T04:52:00;1.85;;;1.73;;
36689;SDS011;22676;51.120;3.702;2024-01-30T04:54:25;1.90;;;1.70;;
36689;SDS011;22676;51.120;3.702;2024-01-30T04:56:51;1.92;;;1.80;;
36689;SDS011;22676;51.120;3.702;2024-01-30T04:59:16;1.88;;;1.60;;
36689;SDS011;22676;51.120;3.702;2024-01-30T05:01:42;2.25;;;2.00;;
36689;SDS011;22676;51.120;3.702;2024-01-30T05:04:08;2.45;;;1.90;;
36689;SDS011;22676;51.120;3.702;2024-01-30T05:06:34;1.70;;;1.60;;
36689;SDS011;22676;51.120;3.702;2024-01-30T05:09:00;4.53;;;1.73;;
36689;SDS011;22676;51.120;3.702;2024-01-30T05:11:26;3.60;;;1.73;;
36689;SDS011;22676;51.120;3.702;2024-01-30T05:13:51;1.80;;;1.70;;
36689;SDS011;22676;51.120;3.702;2024-01-30T05:16:17;2.08;;;1.80;;
36689;SDS011;22676;51.120;3.702;2024-01-30T05:18:43;2.25;;;2.00;;
36689;SDS011;22676;51.120;3.702;2024-01-30T05:21:09;2.40;;;2.20;;
36689;SDS011;22676;51.120;3.702;2024-01-30T05:23:35;4.32;;;2.17;;
36689;SDS011;22676;51.120;3.702;2024-01-30T05:26:01;1.90;;;1.80;;
36689;SDS011;22676;51.120;3.702;2024-01-30T05:28:28;2.35;;;1.80;;
36689;SDS011;22676;51.120;3.702;2024-01-30T05:30:55;2.70;;;1.83;;
36689;SDS011;22676;51.120;3.702;2024-01-30T05:33:21;1.90;;;1.70;;
36689;SDS011;22676;51.120;3.702;2024-01-30T05:35:47;1.80;;;1.70;;
36689;SDS011;22676;51.120;3.702;2024-01-30T05:38:13;3.70;;;1.90;;
36689;SDS011;22676;51.120;3.702;2024-01-30T05:40:40;3.95;;;2.08;;
36689;SDS011;22676;51.120;3.702;2024-01-30T05:43:05;3.35;;;1.75;;
36689;SDS011;22676;51.120;3.702;2024-01-30T05:45:35;2.28;;;1.58;;
36689;SDS011;22676;51.120;3.702;2024-01-30T05:48:01;4.78;;;1.60;;
36689;SDS011;22676;51.120;3.702;2024-01-30T05:50:27;3.53;;;1.88;;
36689;SDS011;22676;51.120;3.702;2024-01-30T05:52:53;2.42;;;1.83;;
36689;SDS011;22676;51.120;3.702;2024-01-30T05:55:18;1.60;;;1.50;;
36689;SDS011;22676;51.120;3.702;2024-01-30T05:57:44;1.85;;;1.60;;
36689;SDS011;22676;51.120;3.702;2024-01-30T06:00:10;2.22;;;1.80;;
36689;SDS011;22676;51.120;3.702;2024-01-30T06:02:36;2.42;;;1.58;;
36689;SDS011;22676;51.120;3.702;2024-01-30T06:05:01;3.38;;;1.70;;
36689;SDS011;22676;51.120;3.702;2024-01-30T06:07:27;2.33;;;1.60;;
36689;SDS011;22676;51.120;3.702;2024-01-30T06:09:53;7.22;;;1.70;;
36689;SDS011;22676;51.120;3.702;2024-01-30T06:12:18;2.03;;;1.60;;
36689;SDS011;22676;51.120;3.702;2024-01-30T06:14:44;4.88;;;1.83;;
36689;SDS011;22676;51.120;3.702;2024-01-30T06:17:10;4.50;;;1.90;;
36689;SDS011;22676;51.120;3.702;2024-01-30T06:19:37;3.28;;;1.80;;
36689;SDS011;22676;51.120;3.702;2024-01-30T06:22:04;2.83;;;2.00;;
36689;SDS011;22676;51.120;3.702;2024-01-30T06:24:30;3.22;;;1.80;;
36689;SDS011;22676;51.120;3.702;2024-01-30T06:26:55;2.05;;;1.70;;
36689;SDS011;22676;51.120;3.702;2024-01-30T06:29:21;2.50;;;1.75;;
36689;SDS011;22676;51.120;3.702;2024-01-30T06:31:47;4.00;;;1.60;;
36689;SDS011;22676;51.120;3.702;2024-01-30T06:34:12;1.58;;;1.48;;
36689;SDS011;22676;51.120;3.702;2024-01-30T06:36:38;3.97;;;1.90;;
36689;SDS011;22676;51.120;3.702;2024-01-30T06:39:04;4.82;;;1.90;;
36689;SDS011;22676;51.120;3.702;2024-01-30T06:41:30;5.13;;;1.92;;
36689;SDS011;22676;51.120;3.702;2024-01-30T06:43:56;1.60;;;1.50;;
36689;SDS011;22676;51.120;3.702;2024-01-30T06:46:22;3.08;;;1.40;;
36689;SDS011;22676;51.120;3.702;2024-01-30T06:48:47;3.63;;;1.52;;
36689;SDS011;22676;51.120;3.702;2024-01-30T06:51:13;2.17;;;1.50;;
36689;SDS011;22676;51.120;3.702;2024-01-30T06:53:39;2.53;;;1.60;;
36689;SDS011;22676;51.120;3.702;2024-01-30T06:56:05;5.63;;;1.77;;
36689;SDS011;22676;51.120;3.702;2024-01-30T06:58:31;1.65;;;1.48;;
36689;SDS011;22676;51.120;3.702;2024-01-30T07:00:57;3.30;;;1.88;;
36689;SDS011;22676;51.120;3.702;2024-01-30T07:03:23;1.70;;;1.60;;
36689;SDS011;22676;51.120;3.702;2024-01-30T07:05:49;1.67;;;1.50;;
36689;SDS011;22676;51.120;3.702;2024-01-30T07:08:15;1.70;;;1.60;;
36689;SDS011;22676;51.120;3.702;2024-01-30T07:10:42;1.50;;;1.40;;
36689;SDS011;22676;51.120;3.702;2024-01-30T07:13:11;2.47;;;1.77;;
36689;SDS011;22676;51.120;3.702;2024-01-30T07:15:37;1.95;;;1.48;;
36689;SDS011;22676;51.120;3.702;2024-01-30T07:18:03;1.70;;;1.60;;
36689;SDS011;22676;51.120;3.702;2024-01-30T07:20:29;2.63;;;1.80;;
36689;SDS011;22676;51.120;3.702;2024-01-30T07:22:56;2.00;;;1.60;;
36689;SDS011;22676;51.120;3.702;2024-01-30T07:25:25;3.40;;;2.00;;
36689;SDS011;22676;51.120;3.702;2024-01-30T07:27:52;2.78;;;2.00;;
36689;SDS011;22676;51.120;3.702;2024-01-30T07:30:18;5.25;;;2.03;;
36689;SDS011;22676;51.120;3.702;2024-01-30T07:32:44;2.35;;;1.95;;
36689;SDS011;22676;51.120;3.702;2024-01-30T07:35:10;3.30;;;1.88;;
36689;SDS011;22676;51.120;3.702;2024-01-30T07:37:36;1.98;;;1.80;;
36689;SDS011;22676;51.120;3.702;2024-01-30T07:40:02;4.18;;;1.77;;
36689;SDS011;22676;51.120;3.702;2024-01-30T07:42:28;2.70;;;2.00;;
36689;SDS011;22676;51.120;3.702;2024-01-30T07:44:54;2.67;;;1.80;;
36689;SDS011;22676;51.120;3.702;2024-01-30T07:47:19;2.70;;;1.60;;
36689;SDS011;22676;51.120;3.702;2024-01-30T07:49:45;1.98;;;1.60;;
36689;SDS011;22676;51.120;3.702;2024-01-30T07:52:11;2.85;;;1.98;;
36689;SDS011;22676;51.120;3.702;2024-01-30T07:54:49;2.30;;;1.70;;
36689;SDS011;22676;51.120;3.702;2024-01-30T07:57:15;3.45;;;1.75;;
36689;SDS011;22676;51.120;3.702;2024-01-30T07:59:42;2.75;;;1.73;;
36689;SDS011;22676;51.120;3.702;2024-01-30T08:02:14;2.15;;;1.83;;
36689;SDS011;22676;51.120;3.702;2024-01-30T08:04:39;2.40;;;1.70;;
36689;SDS011;22676;51.120;3.702;2024-01-30T08:07:05;2.22;;;1.60;;
36689;SDS011;22676;51.120;3.702;2024-01-30T08:09:31;3.90;;;1.80;;
36689;SDS011;22676;51.120;3.702;2024-01-30T08:11:57;1.65;;;1.55;;
36689;SDS011;22676;51.120;3.702;2024-01-30T08:14:22;2.70;;;1.85;;
36689;SDS011;22676;51.120;3.702;2024-01-30T08:16:48;3.13;;;1.90;;
36689;SDS011;22676;51.120;3.702;2024-01-30T08:19:14;3.85;;;2.15;;
36689;SDS011;22676;51.120;3.702;2024-01-30T08:21:40;2.75;;;2.00;;
36689;SDS011;22676;51.120;3.702;2024-01-30T08:24:06;2.60;;;1.90;;
36689;SDS011;22676;51.120;3.702;2024-01-30T08:26:32;2.03;;;1.80;;
36689;SDS011;22676;51.120;3.702;2024-01-30T08:28:58;2.10;;;1.90;;
36689;SDS011;22676;51.120;3.702;2024-01-30T08:31:24;2.50;;;1.80;;
36689;SDS011;22676;51.120;3.702;2024-01-30T08:33:50;2.05;;;1.85;;
36689;SDS011;22676;51.120;3.702;2024-01-30T08:36:16;3.10;;;1.75;;
36689;SDS011;22676;51.120;3.702;2024-01-30T08:38:42;2.22;;;1.70;;
36689;SDS011;22676;51.120;3.702;2024-01-30T08:41:08;3.30;;;1.95;;
36689;SDS011;22676;51.120;3.702;2024-01-30T08:43:33;2.25;;;1.73;;
36689;SDS011;22676;51.120;3.702;2024-01-30T08:45:59;4.00;;;2.05;;
36689;SDS011;22676;51.120;3.702;2024-01-30T08:48:26;3.22;;;1.70;;
36689;SDS011;22676;51.120;3.702;2024-01-30T08:50:51;6.00;;;2.08;;
36689;SDS011;22676;51.120;3.702;2024-01-30T08:53:17;3.28;;;1.80;;
36689;SDS011;22676;51.120;3.702;2024-01-30T08:55:43;2.05;;;1.80;;
36689;SDS011;22676;51.120;3.702;2024-01-30T08:58:09;2.00;;;1.75;;
36689;SDS011;22676;51.120;3.702;2024-01-30T09:00:35;3.47;;;1.70;;
36689;SDS011;22676;51.120;3.702;2024-01-30T09:03:00;1.85;;;1.70;;
36689;SDS011;22676;51.120;3.702;2024-01-30T09:05:26;4.30;;;1.80;;
36689;SDS011;22676;51.120;3.702;2024-01-30T09:07:52;1.77;;;1.65;;
36689;SDS011;22676;51.120;3.702;2024-01-30T09:10:17;2.20;;;1.90;;
36689;SDS011;22676;51.120;3.702;2024-01-30T09:12:44;2.45;;;1.73;;
36689;SDS011;22676;51.120;3.702;2024-01-30T09:15:09;1.70;;;1.60;;
36689;SDS011;22676;51.120;3.702;2024-01-30T09:17:35;2.35;;;1.80;;
36689;SDS011;22676;51.120;3.702;2024-01-30T09:20:01;5.35;;;1.90;;
36689;SDS011;22676;51.120;3.702;2024-01-30T09:22:27;2.28;;;1.90;;
36689;SDS011;22676;51.120;3.702;2024-01-30T09:24:52;3.40;;;1.73;;
36689;SDS011;22676;51.120;3.702;2024-01-30T09:27:18;1.80;;;1.58;;
36689;SDS011;22676;51.120;3.702;2024-01-30T09:29:43;2.10;;;1.80;;
36689;SDS011;22676;51.120;3.702;2024-01-30T09:32:09;2.42;;;1.63;;
36689;SDS011;22676;51.120;3.702;2024-01-30T09:34:35;1.83;;;1.60;;
36689;SDS011;22676;51.120;3.702;2024-01-30T09:37:00;2.95;;;1.70;;
36689;SDS011;22676;51.120;3.702;2024-01-30T09:39:27;2.05;;;1.60;;
36689;SDS011;22676;51.120;3.702;2024-01-30T09:42:03;1.85;;;1.38;;
36689;SDS011;22676;51.120;3.702;2024-01-30T09:44:36;2.75;;;1.50;;
36689;SDS011;22676;51.120;3.702;2024-01-30T09:47:03;1.95;;;1.50;;
36689;SDS011;22676;51.120;3.702;2024-01-30T09:49:33;1.40;;;1.30;;
36689;SDS011;22676;51.120;3.702;2024-01-30T09:52:00;1.73;;;1.60;;
36689;SDS011;22676;51.120;3.702;2024-01-30T09:54:30;2.10;;;1.60;;
36689;SDS011;22676;51.120;3.702;2024-01-30T09:56:56;1.60;;;1.50;;
36689;SDS011;22676;51.120;3.702;2024-01-30T09:59:23;2.13;;;1.55;;
36689;SDS011;22676;51.120;3.702;2024-01-30T10:01:49;1.92;;;1.42;;
36689;SDS011;22676;51.120;3.702;2024-01-30T10:04:15;4.85;;;1.30;;
36689;SDS011;22676;51.120;3.702;2024-01-30T10:06:41;1.50;;;1.40;;
36689;SDS011;22676;51.120;3.702;2024-01-30T10:09:07;1.60;;;1.50;;
36689;SDS011;22676;51.120;3.702;2024-01-30T10:11:34;1.50;;;1.38;;
36689;SDS011;22676;51.120;3.702;2024-01-30T10:14:01;2.70;;;1.60;;
36689;SDS011;22676;51.120;3.702;2024-01-30T10:16:27;1.67;;;1.50;;
36689;SDS011;22676;51.120;3.702;2024-01-30T10:18:53;3.63;;;1.42;;
36689;SDS011;22676;51.120;3.702;2024-01-30T10:21:19;2.20;;;1.42;;
36689;SDS011;22676;51.120;3.702;2024-01-30T10:23:44;1.50;;;1.20;;
36689;SDS011;22676;51.120;3.702;2024-01-30T10:26:10;2.33;;;1.23;;
36689;SDS011;22676;51.120;3.702;2024-01-30T10:28:35;4.03;;;1.65;;
36689;SDS011;22676;51.120;3.702;2024-01-30T10:31:01;1.38;;;1.10;;
36689;SDS011;22676;51.120;3.702;2024-01-30T10:33:31;1.63;;;1.20;;
36689;SDS011;22676;51.120;3.702;2024-01-30T10:35:59;1.38;;;1.27;;
36689;SDS011;22676;51.120;3.702;2024-01-30T10:38:29;1.55;;;1.20;;
36689;SDS011;22676;51.120;3.702;2024-01-30T10:40:56;1.40;;;1.20;;
36689;SDS011;22676;51.120;3.702;2024-01-30T10:43:24;1.30;;;1.20;;
36689;SDS011;22676;51.120;3.702;2024-01-30T10:45:55;1.98;;;1.50;;
36689;SDS011;22676;51.120;3.702;2024-01-30T10:48:28;1.58;;;1.23;;
36689;SDS011;22676;51.120;3.702;2024-01-30T10:50:57;1.35;;;1.25;;
36689;SDS011;22676;51.120;3.702;2024-01-30T10:53:25;1.30;;;1.20;;
36689;SDS011;22676;51.120;3.702;2024-01-30T10:55:52;2.20;;;1.30;;
36689;SDS011;22676;51.120;3.702;2024-01-30T10:58:20;1.52;;;1.10;;
36689;SDS011;22676;51.120;3.702;2024-01-30T11:00:46;1.70;;;1.10;;
36689;SDS011;22676;51.120;3.702;2024-01-30T11:03:14;1.13;;;1.02;;
36689;SDS011;22676;51.120;3.702;2024-01-30T11:05:40;1.42;;;1.00;;
36689;SDS011;22676;51.120;3.702;2024-01-30T11:08:12;1.33;;;1.23;;
36689;SDS011;22676;51.120;3.702;2024-01-30T11:10:47;1.65;;;1.20;;
36689;SDS011;22676;51.120;3.702;2024-01-30T11:13:14;2.28;;;1.20;;
36689;SDS011;22676;51.120;3.702;2024-01-30T11:15:40;3.10;;;1.05;;
36689;SDS011;22676;51.120;3.702;2024-01-30T11:18:05;1.10;;;1.00;;
36689;SDS011;22676;51.120;3.702;2024-01-30T11:20:31;1.00;;;0.80;;
36689;SDS011;22676;51.120;3.702;2024-01-30T11:22:57;2.95;;;0.88;;
36689;SDS011;22676;51.120;3.702;2024-01-30T11:25:25;1.83;;;1.02;;
36689;SDS011;22676;51.120;3.702;2024-01-30T11:27:51;1.85;;;1.23;;
36689;SDS011;22676;51.120;3.702;2024-01-30T11:32:58;1.10;;;1.00;;
36689;SDS011;22676;51.120;3.702;2024-01-30T11:35:41;2.00;;;1.10;;
36689;SDS011;22676;51.120;3.702;2024-01-30T11:38:08;1.70;;;1.30;;
36689;SDS011;22676;51.120;3.702;2024-01-30T11:40:37;1.73;;;1.05;;
36689;SDS011;22676;51.120;3.702;2024-01-30T11:43:05;1.63;;;1.00;;
36689;SDS011;22676;51.120;3.702;2024-01-30T11:45:32;1.27;;;1.00;;
36689;SDS011;22676;51.120;3.702;2024-01-30T11:47:58;1.23;;;1.00;;
36689;SDS011;22676;51.120;3.702;2024-01-30T11:50:28;2.97;;;1.25;;
36689;SDS011;22676;51.120;3.702;2024-01-30T11:52:55;2.38;;;1.02;;
36689;SDS011;22676;51.120;3.702;2024-01-30T11:55:22;1.05;;;0.90;;
36689;SDS011;22676;51.120;3.702;2024-01-30T11:57:48;1.83;;;1.10;;
36689;SDS011;22676;51.120;3.702;2024-01-30T12:00:14;2.25;;;1.13;;
36689;SDS011;22676;51.120;3.702;2024-01-30T12:02:42;1.42;;;1.05;;
36689;SDS011;22676;51.120;3.702;2024-01-30T12:05:08;1.13;;;0.80;;
36689;SDS011;22676;51.120;3.702;2024-01-30T12:07:34;1.23;;;0.93;;
36689;SDS011;22676;51.120;3.702;2024-01-30T12:10:00;1.75;;;0.80;;
36689;SDS011;22676;51.120;3.702;2024-01-30T12:12:26;1.15;;;1.00;;
36689;SDS011;22676;51.120;3.702;2024-01-30T12:14:52;1.00;;;0.82;;
36689;SDS011;22676;51.120;3.702;2024-01-30T12:22:31;1.73;;;1.02;;
36689;SDS011;22676;51.120;3.702;2024-01-30T12:25:07;1.33;;;0.90;;
36689;SDS011;22676;51.120;3.702;2024-01-30T12:27:46;1.67;;;0.90;;
36689;SDS011;22676;51.120;3.702;2024-01-30T12:30:17;1.90;;;0.90;;
36689;SDS011;22676;51.120;3.702;2024-01-30T12:32:44;1.45;;;0.80;;
36689;SDS011;22676;51.120;3.702;2024-01-30T12:35:15;1.15;;;0.80;;
36689;SDS011;22676;51.120;3.702;2024-01-30T12:37:43;1.35;;;0.90;;
36689;SDS011;22676;51.120;3.702;2024-01-30T12:40:10;1.50;;;0.90;;
36689;SDS011;22676;51.120;3.702;2024-01-30T12:42:39;1.52;;;0.80;;
36689;SDS011;22676;51.120;3.702;2024-01-30T12:45:07;2.38;;;1.02;;
36689;SDS011;22676;51.120;3.702;2024-01-30T12:47:33;0.70;;;0.70;;
36689;SDS011;22676;51.120;3.702;2024-01-30T12:49:58;1.70;;;0.88;;
36689;SDS011;22676;51.120;3.702;2024-01-30T12:52:24;0.95;;;0.77;;
36689;SDS011;22676;51.120;3.702;2024-01-30T12:54:50;0.60;;;0.50;;
36689;SDS011;22676;51.120;3.702;2024-01-30T12:57:16;1.98;;;0.85;;
36689;SDS011;22676;51.120;3.702;2024-01-30T12:59:43;0.90;;;0.80;;
36689;SDS011;22676;51.120;3.702;2024-01-30T13:02:10;0.82;;;0.82;;
36689;SDS011;22676;51.120;3.702;2024-01-30T13:04:36;0.75;;;0.73;;
36689;SDS011;22676;51.120;3.702;2024-01-30T13:07:02;0.98;;;0.70;;
36689;SDS011;22676;51.120;3.702;2024-01-30T13:09:29;0.88;;;0.60;;
36689;SDS011;22676;51.120;3.702;2024-01-30T13:11:55;0.73;;;0.65;;
36689;SDS011;22676;51.120;3.702;2024-01-30T13:14:21;2.05;;;0.90;;
36689;SDS011;22676;51.120;3.702;2024-01-30T13:16:47;1.88;;;0.80;;
36689;SDS011;22676;51.120;3.702;2024-01-30T13:19:12;0.80;;;0.75;;
36689;SDS011;22676;51.120;3.702;2024-01-30T13:21:38;2.20;;;0.90;;
36689;SDS011;22676;51.120;3.702;2024-01-30T13:24:04;1.50;;;0.70;;
36689;SDS011;22676;51.120;3.702;2024-01-30T13:26:31;0.75;;;0.50;;
36689;SDS011;22676;51.120;3.702;2024-01-30T13:28:57;0.93;;;0.63;;
36689;SDS011;22676;51.120;3.702;2024-01-30T13:31:23;1.13;;;0.60;;
36689;SDS011;22676;51.120;3.702;2024-01-30T13:33:49;0.68;;;0.57;;
36689;SDS011;22676;51.120;3.702;2024-01-30T13:36:14;1.05;;;0.70;;
36689;SDS011;22676;51.120;3.702;2024-01-30T13:38:40;0.90;;;0.70;;
36689;SDS011;22676;51.120;3.702;2024-01-30T13:41:06;0.98;;;0.70;;
36689;SDS011;22676;51.120;3.702;2024-01-30T13:43:32;1.30;;;0.90;;
36689;SDS011;22676;51.120;3.702;2024-01-30T13:45:57;1.20;;;0.70;;
36689;SDS011;22676;51.120;3.702;2024-01-30T13:48:24;2.55;;;0.70;;
36689;SDS011;22676;51.120;3.702;2024-01-30T13:50:49;1.30;;;0.70;;
36689;SDS011;22676;51.120;3.702;2024-01-30T13:53:15;0.93;;;0.52;;
36689;SDS011;22676;51.120;3.702;2024-01-30T13:55:41;0.75;;;0.60;;
36689;SDS011;22676;51.120;3.702;2024-01-30T13:58:07;0.52;;;0.50;;
36689;SDS011;22676;51.120;3.702;2024-01-30T14:00:33;1.08;;;0.70;;
36689;SDS011;22676;51.120;3.702;2024-01-30T14:02:59;0.90;;;0.70;;
36689;SDS011;22676;51.120;3.702;2024-01-30T14:05:25;1.20;;;0.68;;
36689;SDS011;22676;51.120;3.702;2024-01-30T14:07:53;0.77;;;0.70;;
36689;SDS011;22676;51.120;3.702;2024-01-30T14:10:19;1.92;;;0.70;;
36689;SDS011;22676;51.120;3.702;2024-01-30T14:12:44;1.38;;;0.82;;
36689;SDS011;22676;51.120;3.702;2024-01-30T14:15:11;0.50;;;0.50;;
36689;SDS011;22676;51.120;3.702;2024-01-30T14:17:39;1.15;;;0.70;;
36689;SDS011;22676;51.120;3.702;2024-01-30T14:20:04;1.80;;;0.82;;
36689;SDS011;22676;51.120;3.702;2024-01-30T14:22:34;1.83;;;0.80;;
36689;SDS011;22676;51.120;3.702;2024-01-30T14:25:00;1.20;;;0.75;;
36689;SDS011;22676;51.120;3.702;2024-01-30T14:27:28;1.92;;;0.73;;
36689;SDS011;22676;51.120;3.702;2024-01-30T14:29:55;0.95;;;0.60;;
36689;SDS011;22676;51.120;3.702;2024-01-30T14:32:21;1.35;;;0.60;;
36689;SDS011;22676;51.120;3.702;2024-01-30T14:34:48;1.17;;;0.60;;
36689;SDS011;22676;51.120;3.702;2024-01-30T14:37:14;0.60;;;0.57;;
36689;SDS011;22676;51.120;3.702;2024-01-30T14:39:39;1.05;;;0.60;;
36689;SDS011;22676;51.120;3.702;2024-01-30T14:42:06;3.65;;;0.60;;
36689;SDS011;22676;51.120;3.702;2024-01-30T14:44:32;0.60;;;0.60;;
36689;SDS011;22676;51.120;3.702;2024-01-30T14:46:58;1.38;;;0.90;;
36689;SDS011;22676;51.120;3.702;2024-01-30T14:49:24;1.10;;;0.68;;
36689;SDS011;22676;51.120;3.702;2024-01-30T14:51:50;0.95;;;0.50;;